LTAU/ASR METAR and TAF weather

Enter ICAO airport designator
Station Type Date Time Source
LTAU METAR 2020/08/14 17:20 UTC NOAA

LTAU 141720Z 05009KT 9999 FEW040 22/09 Q1014 NOSIG


Station Type Date Time Source
LTAU Decoded METAR 2020/08/14 17:20 UTC NOAA

Kayseri / Erkilet, Turkey (LTAU) 38-47N 035-29E 1054M
Aug 14, 2020 - 01:20 PM EDT / 2020.08.14 1720 UTC
Wind: from the NE (050 degrees) at 10 MPH (9 KT):0
Visibility: greater than 7 mile(s):0
Sky conditions: mostly clear
Temperature: 71 F (22 C)
Dew Point: 48 F (9 C)
Relative Humidity: 43%
Pressure (altimeter): 29.94 in. Hg (1014 hPa)
ob: LTAU 141720Z 05009KT 9999 FEW040 22/09 Q1014 NOSIG
cycle: 17

Station Type Date Time Source
LTAU TAF 2020/08/14 18:03 UTC NOAA

TAF LTAU 141640Z 1418/1518 05009KT CAVOK
BECMG 1507/1510 FEW040

Example: see airport list